Time;durP1;ratioP1;P1;durP2;ratioP2;P2;SDS_P1;SDS_P2;PMS_P1;PMS_P2;Temp;Humidity;BMP_temperature;BMP_pressure;BME280_temperature;BME280_humidity;BME280_pressure;Samples;Min_cycle;Max_cycle;Signal;HPM_P1;HPM_P2
2023/09/22 00:01:16;;;;;;;7.50;4.30;;;;;;;;;;4980943;28;20054;-60
2023/09/22 00:04:10;;;;;;;9.30;4.40;;;;;;;;;;4971942;28;20054;-61
2023/09/22 00:06:57;;;;;;;16.00;4.60;;;;;;;;;;4983065;28;20073;-60
2023/09/22 00:09:57;;;;;;;9.32;4.45;;;;;;;;;;4982895;28;20105;-60
2023/09/22 00:12:45;;;;;;;8.27;4.38;;;;;;;;;;4978365;28;20429;-49
2023/09/22 00:15:45;;;;;;;7.03;4.38;;;;;;;;;;4982870;28;20061;-49
2023/09/22 00:18:39;;;;;;;9.32;4.55;;;;;;;;;;4986023;28;20058;-49
2023/09/22 00:21:33;;;;;;;10.98;4.00;;;;;;;;;;4980216;28;20058;-53
2023/09/22 00:24:20;;;;;;;7.78;4.13;;;;;;;;;;4978645;28;20502;-48
2023/09/22 00:27:15;;;;;;;8.98;3.90;;;;;;;;;;4979320;28;20525;-50
2023/09/22 00:30:01;;;;;;;7.10;3.90;;;;;;;;;;4982090;28;20074;-47
2023/09/22 00:32:57;;;;;;;6.03;4.00;;;;;;;;;;4982066;28;20137;-62
2023/09/22 00:35:43;;;;;;;7.75;4.13;;;;;;;;;;4979889;28;20062;-62
2023/09/22 00:38:37;;;;;;;7.15;4.10;;;;;;;;;;4982276;28;20128;-62
2023/09/22 00:41:25;;;;;;;9.48;4.05;;;;;;;;;;4984229;28;20110;-62
2023/09/22 00:44:18;;;;;;;8.40;4.10;;;;;;;;;;4982684;28;20066;-63
2023/09/22 00:47:06;;;;;;;14.07;4.63;;;;;;;;;;4978359;28;20137;-63
2023/09/22 00:50:01;;;;;;;11.27;4.28;;;;;;;;;;4979954;28;20056;-63
2023/09/22 00:52:48;;;;;;;7.07;4.17;;;;;;;;;;4979877;28;20054;-61
2023/09/22 00:55:43;;;;;;;10.95;4.70;;;;;;;;;;4984339;28;20305;-61
2023/09/22 00:58:30;;;;;;;7.50;3.92;;;;;;;;;;4984754;28;20490;-61
2023/09/22 01:01:26;;;;;;;9.90;4.55;;;;;;;;;;4976090;28;20414;-62
2023/09/22 01:04:21;;;;;;;7.72;3.92;;;;;;;;;;4982340;28;20058;-60
2023/09/22 01:07:21;;;;;;;12.13;4.57;;;;;;;;;;4985386;28;20055;-61
2023/09/22 01:10:09;;;;;;;7.25;4.28;;;;;;;;;;4980029;28;21229;-49
2023/09/22 01:13:04;;;;;;;7.60;4.30;;;;;;;;;;4966735;28;20062;-50
2023/09/22 01:15:50;;;;;;;7.70;4.80;;;;;;;;;;4977649;28;20478;-47
2023/09/22 01:18:52;;;;;;;8.13;4.22;;;;;;;;;;4980741;28;20153;-47
2023/09/22 01:21:38;;;;;;;8.40;4.75;;;;;;;;;;4979989;28;20070;-45
2023/09/22 01:24:32;;;;;;;10.07;4.30;;;;;;;;;;4982173;28;20648;-51
2023/09/22 01:27:20;;;;;;;7.93;4.50;;;;;;;;;;4977608;28;20054;-61
2023/09/22 01:30:14;;;;;;;7.45;4.65;;;;;;;;;;4982200;28;20108;-62
2023/09/22 01:33:02;;;;;;;11.65;4.55;;;;;;;;;;4982511;28;20153;-63
2023/09/22 01:35:55;;;;;;;6.97;4.30;;;;;;;;;;4985090;28;20149;-63
2023/09/22 01:38:49;;;;;;;7.90;4.43;;;;;;;;;;4975593;28;21689;-63
2023/09/22 01:41:43;;;;;;;6.72;4.28;;;;;;;;;;4976515;28;20055;-63
2023/09/22 01:44:31;;;;;;;6.55;4.32;;;;;;;;;;4980891;28;20061;-57
2023/09/22 01:47:08;;;;;;;11.35;4.55;;;;;;;;;;4979971;28;20059;-60
2023/09/22 01:49:55;;;;;;;9.43;4.55;;;;;;;;;;4976615;28;20061;-60
2023/09/22 01:52:48;;;;;;;10.70;4.72;;;;;;;;;;4983923;28;20061;-60
2023/09/22 01:55:36;;;;;;;11.30;5.13;;;;;;;;;;4985405;28;20728;-61
2023/09/22 01:58:30;;;;;;;12.00;4.45;;;;;;;;;;4987368;28;20058;-61
2023/09/22 02:01:17;;;;;;;6.55;4.50;;;;;;;;;;4985715;28;20097;-60
2023/09/22 02:04:11;;;;;;;10.48;5.13;;;;;;;;;;4986316;28;20057;-64
2023/09/22 02:06:59;;;;;;;12.75;5.10;;;;;;;;;;4987471;28;20138;-47
2023/09/22 02:09:52;;;;;;;9.48;4.75;;;;;;;;;;4986373;28;20098;-50
2023/09/22 02:12:40;;;;;;;8.23;4.47;;;;;;;;;;4986388;28;20525;-50
2023/09/22 02:15:35;;;;;;;9.38;4.72;;;;;;;;;;4974403;28;20058;-48
2023/09/22 02:18:28;;;;;;;10.25;5.05;;;;;;;;;;4987667;28;20060;-51
2023/09/22 02:21:22;;;;;;;9.18;4.60;;;;;;;;;;4984861;28;20050;-61
2023/09/22 02:24:09;;;;;;;9.95;4.93;;;;;;;;;;4992162;28;20062;-50
2023/09/22 02:27:04;;;;;;;12.13;4.53;;;;;;;;;;4989874;28;20060;-49
2023/09/22 02:29:51;;;;;;;9.25;4.95;;;;;;;;;;4991361;28;20065;-47
2023/09/22 02:32:49;;;;;;;8.20;4.78;;;;;;;;;;4988897;28;20113;-48
2023/09/22 02:35:36;;;;;;;7.68;4.63;;;;;;;;;;4989484;28;20050;-49
2023/09/22 02:38:29;;;;;;;10.00;4.47;;;;;;;;;;4985898;28;20062;-59
2023/09/22 02:41:18;;;;;;;9.45;3.97;;;;;;;;;;4983904;28;20108;-60
2023/09/22 02:44:12;;;;;;;11.13;4.97;;;;;;;;;;4984178;28;20094;-63
2023/09/22 02:46:57;;;;;;;9.85;5.40;;;;;;;;;;4982770;28;20482;-65
2023/09/22 02:49:51;;;;;;;14.48;4.20;;;;;;;;;;4991210;28;20121;-63
2023/09/22 02:52:39;;;;;;;8.35;4.85;;;;;;;;;;4992789;28;20153;-63
2023/09/22 02:55:39;;;;;;;7.60;4.68;;;;;;;;;;4992432;28;20053;-63
2023/09/22 02:58:26;;;;;;;12.15;4.75;;;;;;;;;;4992615;28;20088;-47
2023/09/22 03:01:20;;;;;;;6.78;4.60;;;;;;;;;;4986042;28;20625;-59
2023/09/22 03:04:09;;;;;;;9.38;4.60;;;;;;;;;;4990688;28;20050;-60
2023/09/22 03:07:03;;;;;;;8.55;4.63;;;;;;;;;;4981619;28;20501;-59
2023/09/22 03:09:56;;;;;;;13.93;4.60;;;;;;;;;;4981462;28;20129;-59
2023/09/22 03:12:52;;;;;;;10.35;4.75;;;;;;;;;;4985248;28;20114;-59
2023/09/22 03:15:44;;;;;;;9.00;5.15;;;;;;;;;;4987066;28;20063;-50
2023/09/22 03:18:47;;;;;;;14.57;5.28;;;;;;;;;;4962556;28;20054;-58
2023/09/22 03:21:32;;;;;;;7.95;4.50;;;;;;;;;;4964160;28;20061;-57
2023/09/22 03:24:27;;;;;;;10.13;4.57;;;;;;;;;;4966949;28;20475;-57
2023/09/22 03:27:15;;;;;;;9.75;4.95;;;;;;;;;;4966598;28;20055;-57
2023/09/22 03:30:09;;;;;;;10.52;4.65;;;;;;;;;;4965476;28;20134;-57
2023/09/22 03:32:58;;;;;;;9.40;5.13;;;;;;;;;;4961746;28;20047;-61
2023/09/22 03:35:50;;;;;;;9.52;4.68;;;;;;;;;;4963268;28;20518;-60
2023/09/22 03:38:39;;;;;;;10.40;4.30;;;;;;;;;;4965102;28;20050;-60
2023/09/22 03:41:35;;;;;;;8.23;4.78;;;;;;;;;;4959533;28;20122;-60
2023/09/22 03:44:23;;;;;;;9.13;4.93;;;;;;;;;;4959397;28;20193;-60
2023/09/22 03:47:17;;;;;;;7.47;4.32;;;;;;;;;;4960000;28;20069;-60
2023/09/22 03:50:05;;;;;;;8.70;4.72;;;;;;;;;;4964089;28;20055;-60
2023/09/22 03:52:57;;;;;;;8.23;4.78;;;;;;;;;;4964839;28;20879;-55
2023/09/22 03:55:45;;;;;;;10.63;4.70;;;;;;;;;;4958957;28;20094;-59
2023/09/22 03:58:40;;;;;;;5.97;4.45;;;;;;;;;;4963146;28;20114;-59
2023/09/22 04:01:28;;;;;;;20.92;5.30;;;;;;;;;;4963331;28;20074;-60
2023/09/22 04:04:20;;;;;;;8.93;4.78;;;;;;;;;;4960542;28;20055;-59
2023/09/22 04:07:14;;;;;;;7.80;4.30;;;;;;;;;;4969571;28;20598;-59
2023/09/22 04:10:03;;;;;;;9.50;4.50;;;;;;;;;;4968255;28;20086;-64
2023/09/22 04:12:56;;;;;;;7.20;4.70;;;;;;;;;;4965832;28;20515;-51
2023/09/22 04:15:45;;;;;;;7.28;4.75;;;;;;;;;;4959549;28;20126;-61
2023/09/22 04:18:45;;;;;;;11.73;5.03;;;;;;;;;;4978675;28;20416;-60
2023/09/22 04:21:37;;;;;;;11.02;4.75;;;;;;;;;;4992567;28;20064;-61
2023/09/22 04:24:32;;;;;;;7.05;5.07;;;;;;;;;;4991444;28;20050;-61
2023/09/22 04:27:06;;;;;;;8.13;4.88;;;;;;;;;;4990174;28;20058;-61
2023/09/22 04:30:00;;;;;;;10.80;5.10;;;;;;;;;;4981546;28;20061;-64
2023/09/22 04:32:51;;;;;;;8.65;5.35;;;;;;;;;;4987520;28;20054;-63
2023/09/22 04:35:41;;;;;;;7.95;5.28;;;;;;;;;;4980578;28;20057;-64
2023/09/22 04:38:29;;;;;;;12.25;4.47;;;;;;;;;;4978206;28;20074;-64
2023/09/22 04:41:22;;;;;;;8.98;5.15;;;;;;;;;;4985872;28;20078;-66
2023/09/22 04:44:10;;;;;;;8.65;5.00;;;;;;;;;;4991920;28;20053;-64
2023/09/22 04:47:03;;;;;;;7.18;5.00;;;;;;;;;;4988036;28;20050;-49
2023/09/22 04:49:51;;;;;;;8.48;5.22;;;;;;;;;;4985011;28;20129;-53
2023/09/22 04:52:45;;;;;;;10.40;5.60;;;;;;;;;;4985581;28;20062;-61
2023/09/22 04:55:35;;;;;;;9.27;5.00;;;;;;;;;;4957831;28;20062;-61
2023/09/22 04:58:30;;;;;;;10.52;5.20;;;;;;;;;;4989034;28;20062;-61
2023/09/22 05:01:17;;;;;;;12.57;5.50;;;;;;;;;;4992753;28;20057;-62
2023/09/22 05:04:12;;;;;;;10.70;5.22;;;;;;;;;;4985513;28;20864;-62
2023/09/22 05:06:59;;;;;;;13.43;6.28;;;;;;;;;;4982386;28;20062;-59
2023/09/22 05:09:53;;;;;;;9.20;5.43;;;;;;;;;;4991688;28;20108;-58
2023/09/22 05:12:47;;;;;;;10.50;5.70;;;;;;;;;;4985456;28;20058;-58
2023/09/22 05:15:41;;;;;;;9.10;5.40;;;;;;;;;;4988398;28;20050;-59
2023/09/22 05:18:36;;;;;;;12.05;5.53;;;;;;;;;;4983344;28;20077;-58
2023/09/22 05:21:30;;;;;;;10.30;5.25;;;;;;;;;;4980503;28;20078;-58
2023/09/22 05:24:24;;;;;;;12.85;5.88;;;;;;;;;;4979727;28;20528;-64
2023/09/22 05:27:11;;;;;;;9.80;5.38;;;;;;;;;;4985936;28;20177;-65
2023/09/22 05:30:06;;;;;;;10.02;5.72;;;;;;;;;;4989215;28;20061;-64
2023/09/22 05:32:53;;;;;;;11.70;5.72;;;;;;;;;;4984886;28;20053;-65
2023/09/22 05:35:46;;;;;;;9.45;5.40;;;;;;;;;;4985097;28;20145;-60
2023/09/22 05:38:33;;;;;;;17.75;6.13;;;;;;;;;;4984025;28;20058;-50
2023/09/22 05:41:28;;;;;;;13.90;5.38;;;;;;;;;;4985994;28;20061;-48
2023/09/22 05:44:16;;;;;;;10.70;5.82;;;;;;;;;;4986971;28;20050;-50
2023/09/22 05:47:07;;;;;;;9.95;5.65;;;;;;;;;;4985857;28;20047;-47
2023/09/22 05:49:55;;;;;;;14.32;5.57;;;;;;;;;;4985303;28;20054;-46
2023/09/22 05:52:49;;;;;;;11.00;5.82;;;;;;;;;;4982675;28;20058;-64
2023/09/22 05:55:36;;;;;;;10.73;5.93;;;;;;;;;;4982436;28;20410;-64
2023/09/22 05:58:29;;;;;;;12.38;6.38;;;;;;;;;;4988514;28;20062;-64
2023/09/22 06:01:17;;;;;;;12.52;5.90;;;;;;;;;;4985336;28;20046;-66
2023/09/22 06:04:11;;;;;;;16.63;5.85;;;;;;;;;;4986327;28;20057;-62
2023/09/22 06:07:12;;;;;;;15.15;6.15;;;;;;;;;;4986462;28;20050;-48
2023/09/22 06:09:52;;;;;;;12.93;6.57;;;;;;;;;;4987245;28;20050;-49
2023/09/22 06:12:46;;;;;;;10.82;6.28;;;;;;;;;;4981917;28;20049;-49
2023/09/22 06:15:39;;;;;;;10.07;6.22;;;;;;;;;;4985719;28;20050;-50
2023/09/22 06:18:33;;;;;;;15.07;6.35;;;;;;;;;;4984960;28;20469;-48
2023/09/22 06:21:30;;;;;;;11.20;6.30;;;;;;;;;;4982536;28;20825;-52
2023/09/22 06:24:17;;;;;;;7.57;5.78;;;;;;;;;;4973659;28;20192;-50
2023/09/22 06:27:09;;;;;;;14.43;6.72;;;;;;;;;;4984505;28;20437;-52
2023/09/22 06:30:10;;;;;;;11.07;5.95;;;;;;;;;;4987960;28;20053;-53
2023/09/22 06:32:56;;;;;;;16.42;6.40;;;;;;;;;;4983937;28;20069;-58
2023/09/22 06:35:44;;;;;;;12.38;6.15;;;;;;;;;;4982961;28;20121;-61
2023/09/22 06:38:38;;;;;;;7.88;6.00;;;;;;;;;;4983869;28;20058;-61
2023/09/22 06:41:25;;;;;;;11.77;6.22;;;;;;;;;;4984404;28;20077;-62
2023/09/22 06:44:18;;;;;;;10.85;6.68;;;;;;;;;;4987056;28;20051;-61
2023/09/22 06:47:13;;;;;;;14.00;6.35;;;;;;;;;;4985824;28;20490;-61
2023/09/22 06:50:06;;;;;;;9.10;6.47;;;;;;;;;;4983674;28;20050;-64
2023/09/22 06:53:01;;;;;;;13.93;7.00;;;;;;;;;;4975380;28;20050;-63
2023/09/22 06:56:09;;;;;;;8.90;6.72;;;;;;;;;;4984724;28;20529;-63
2023/09/22 06:59:13;;;;;;;10.10;6.70;;;;;;;;;;4989057;28;20069;-62
2023/09/22 07:02:08;;;;;;;13.05;7.10;;;;;;;;;;4983320;28;20122;-61
2023/09/22 07:04:54;;;;;;;14.65;7.15;;;;;;;;;;4985712;28;20054;-60
2023/09/22 07:07:52;;;;;;;16.88;7.57;;;;;;;;;;4985040;28;20045;-61
2023/09/22 07:10:38;;;;;;;20.38;8.13;;;;;;;;;;4986601;28;20050;-62
2023/09/22 07:13:32;;;;;;;12.60;8.25;;;;;;;;;;4984814;28;20467;-62
2023/09/22 07:16:20;;;;;;;13.93;8.35;;;;;;;;;;4985605;28;20387;-62
2023/09/22 07:19:20;;;;;;;10.65;8.02;;;;;;;;;;4966668;28;20383;-62
2023/09/22 07:22:13;;;;;;;14.25;8.65;;;;;;;;;;4962799;28;20098;-61
2023/09/22 07:25:05;;;;;;;14.75;8.32;;;;;;;;;;4963220;28;20110;-62
2023/09/22 07:27:58;;;;;;;14.05;7.47;;;;;;;;;;4967446;28;20426;-61
2023/09/22 07:30:46;;;;;;;16.08;7.88;;;;;;;;;;4966417;28;20119;-61
2023/09/22 07:33:40;;;;;;;13.77;8.45;;;;;;;;;;4967433;28;20089;-61
2023/09/22 07:36:28;;;;;;;14.90;8.07;;;;;;;;;;4971468;28;20057;-61
2023/09/22 07:39:37;;;;;;;12.87;8.33;;;;;;;;;;4970863;28;20054;-61
2023/09/22 07:42:31;;;;;;;17.20;9.20;;;;;;;;;;4965949;28;20082;-61
2023/09/22 07:45:19;;;;;;;16.65;8.30;;;;;;;;;;4971403;28;20057;-61
2023/09/22 07:48:33;;;;;;;14.40;9.65;;;;;;;;;;4972069;28;20049;-49
2023/09/22 07:51:22;;;;;;;18.42;8.43;;;;;;;;;;4972935;28;20102;-48
2023/09/22 07:54:15;;;;;;;11.55;8.95;;;;;;;;;;4972053;28;20177;-48
2023/09/22 07:57:02;;;;;;;14.00;9.18;;;;;;;;;;4971552;28;20057;-50
2023/09/22 07:59:56;;;;;;;15.05;8.70;;;;;;;;;;4972858;28;20065;-51
2023/09/22 08:02:43;;;;;;;11.68;8.98;;;;;;;;;;4972385;28;20077;-48
2023/09/22 08:05:39;;;;;;;15.25;7.95;;;;;;;;;;4970310;28;20121;-53
2023/09/22 08:08:25;;;;;;;13.70;9.48;;;;;;;;;;4967036;28;20047;-50
2023/09/22 08:11:18;;;;;;;16.27;8.68;;;;;;;;;;4968738;28;20467;-47
2023/09/22 08:14:05;;;;;;;14.82;9.20;;;;;;;;;;4971207;28;20065;-50
2023/09/22 08:17:23;;;;;;;17.77;9.32;;;;;;;;;;4975013;28;20061;-45
2023/09/22 08:20:19;;;;;;;13.90;8.23;;;;;;;;;;4991985;28;20132;-50
2023/09/22 08:23:10;;;;;;;12.55;8.50;;;;;;;;;;4990111;28;20148;-51
2023/09/22 08:26:17;;;;;;;15.15;7.03;;;;;;;;;;4980588;28;20145;-58
2023/09/22 08:29:09;;;;;;;13.60;8.57;;;;;;;;;;4991345;28;20064;-62
2023/09/22 08:32:01;;;;;;;10.50;8.60;;;;;;;;;;4986610;28;20150;-62
2023/09/22 08:34:55;;;;;;;11.90;8.43;;;;;;;;;;4986968;28;20106;-61
2023/09/22 08:37:42;;;;;;;14.95;8.55;;;;;;;;;;4988038;28;20408;-61
2023/09/22 08:40:37;;;;;;;12.13;8.30;;;;;;;;;;4988990;28;20047;-61
2023/09/22 08:43:24;;;;;;;18.85;9.30;;;;;;;;;;4989322;28;20153;-61
2023/09/22 08:46:18;;;;;;;17.02;8.90;;;;;;;;;;4986837;28;20086;-61
2023/09/22 08:49:05;;;;;;;16.63;9.80;;;;;;;;;;4987192;28;20062;-62
2023/09/22 08:52:00;;;;;;;19.30;9.23;;;;;;;;;;4980372;28;20144;-62
2023/09/22 08:54:52;;;;;;;16.35;9.43;;;;;;;;;;4983495;28;20466;-58
2023/09/22 08:57:48;;;;;;;13.02;8.85;;;;;;;;;;4989880;28;20169;-50
2023/09/22 09:00:35;;;;;;;12.48;9.52;;;;;;;;;;4989210;28;20058;-49
2023/09/22 09:03:31;;;;;;;19.10;8.38;;;;;;;;;;4990609;28;20046;-50
2023/09/22 09:06:20;;;;;;;12.30;8.40;;;;;;;;;;4973261;28;20057;-50
2023/09/22 09:09:13;;;;;;;14.88;9.52;;;;;;;;;;4984169;28;20061;-50
2023/09/22 09:12:01;;;;;;;15.02;8.88;;;;;;;;;;4987151;28;20062;-62
2023/09/22 09:14:58;;;;;;;11.57;9.02;;;;;;;;;;4987444;28;20049;-63
2023/09/22 09:17:51;;;;;;;15.63;9.20;;;;;;;;;;4986883;28;20051;-62
2023/09/22 09:20:47;;;;;;;13.05;9.23;;;;;;;;;;4989126;28;20061;-62
2023/09/22 09:23:34;;;;;;;14.40;8.52;;;;;;;;;;4987953;28;20054;-57
2023/09/22 09:26:28;;;;;;;15.75;9.73;;;;;;;;;;4986799;28;20046;-59
2023/09/22 09:29:26;;;;;;;16.88;10.90;;;;;;;;;;4985288;28;20046;-59
2023/09/22 09:32:26;;;;;;;10.50;7.53;;;;;;;;;;4986590;28;20063;-56
2023/09/22 09:35:27;;;;;;;18.20;7.00;;;;;;;;;;4976092;28;20050;-59
2023/09/22 09:38:20;;;;;;;12.27;5.15;;;;;;;;;;4984333;28;20065;-56
2023/09/22 09:41:08;;;;;;;8.63;5.18;;;;;;;;;;4984581;28;20475;-63
2023/09/22 09:44:04;;;;;;;7.47;3.90;;;;;;;;;;4984514;28;20073;-63
2023/09/22 09:46:51;;;;;;;8.23;4.15;;;;;;;;;;4981811;28;20117;-64
2023/09/22 09:49:50;;;;;;;5.68;3.70;;;;;;;;;;4988568;28;20495;-59
2023/09/22 09:52:38;;;;;;;3.78;3.10;;;;;;;;;;4985789;28;20050;-57
2023/09/22 09:55:34;;;;;;;4.60;3.28;;;;;;;;;;4983043;28;20046;-57
2023/09/22 09:58:22;;;;;;;2.78;2.42;;;;;;;;;;4985420;28;20047;-58
2023/09/22 10:01:17;;;;;;;6.03;3.17;;;;;;;;;;4981987;28;20082;-58
2023/09/22 10:04:03;;;;;;;4.03;2.25;;;;;;;;;;4976112;28;20058;-57
2023/09/22 10:06:57;;;;;;;1.77;1.63;;;;;;;;;;4977628;28;20065;-57
2023/09/22 10:09:45;;;;;;;3.53;2.22;;;;;;;;;;4976149;28;20047;-61
2023/09/22 10:12:39;;;;;;;2.45;1.67;;;;;;;;;;4983377;28;20507;-62
2023/09/22 10:15:52;;;;;;;3.70;2.03;;;;;;;;;;4983609;28;20058;-61
2023/09/22 10:18:55;;;;;;;1.55;1.40;;;;;;;;;;4983620;28;20054;-47
2023/09/22 10:21:49;;;;;;;2.58;1.30;;;;;;;;;;4987906;28;20054;-61
2023/09/22 10:24:38;;;;;;;1.70;1.40;;;;;;;;;;4977300;28;20065;-62
2023/09/22 10:27:52;;;;;;;3.60;1.80;;;;;;;;;;4983983;28;20054;-61
2023/09/22 10:31:02;;;;;;;4.18;1.60;;;;;;;;;;4989742;28;20485;-62
2023/09/22 10:33:55;;;;;;;1.83;1.67;;;;;;;;;;4985315;28;20445;-62
2023/09/22 10:36:50;;;;;;;1.52;1.10;;;;;;;;;;4984456;28;20050;-62
2023/09/22 10:39:55;;;;;;;2.97;1.40;;;;;;;;;;4985794;28;20050;-62
2023/09/22 10:42:52;;;;;;;2.03;0.90;;;;;;;;;;4984984;28;20078;-62
2023/09/22 10:45:40;;;;;;;1.90;1.23;;;;;;;;;;4984913;28;20065;-62
2023/09/22 10:48:34;;;;;;;2.45;0.68;;;;;;;;;;4985567;28;20058;-52
2023/09/22 10:51:44;;;;;;;0.85;0.70;;;;;;;;;;4982422;28;20082;-49
2023/09/22 10:54:42;;;;;;;2.08;0.93;;;;;;;;;;4984785;28;20569;-45
2023/09/22 10:57:36;;;;;;;1.40;0.50;;;;;;;;;;4984713;28;20077;-46
2023/09/22 11:00:29;;;;;;;0.90;0.63;;;;;;;;;;4988608;28;20046;-49
2023/09/22 11:03:16;;;;;;;7.15;0.90;;;;;;;;;;4985665;28;20548;-50
2023/09/22 11:06:10;;;;;;;0.85;0.50;;;;;;;;;;4985517;28;20141;-62
2023/09/22 11:08:57;;;;;;;1.25;0.90;;;;;;;;;;4985478;28;20145;-62
2023/09/22 11:11:51;;;;;;;0.85;0.60;;;;;;;;;;4985522;28;20101;-62
2023/09/22 11:14:40;;;;;;;1.30;0.75;;;;;;;;;;4990993;28;20054;-63
2023/09/22 11:17:47;;;;;;;1.67;0.68;;;;;;;;;;4987853;28;20178;-60
2023/09/22 11:20:34;;;;;;;3.65;0.73;;;;;;;;;;4994901;28;20449;-59
2023/09/22 11:23:29;;;;;;;2.17;0.80;;;;;;;;;;4989168;28;20050;-58
2023/09/22 11:26:25;;;;;;;1.10;0.70;;;;;;;;;;4987006;28;20058;-58
2023/09/22 11:29:19;;;;;;;3.15;0.75;;;;;;;;;;4991340;28;20054;-58
2023/09/22 11:32:12;;;;;;;3.33;0.60;;;;;;;;;;4991250;28;20132;-57
2023/09/22 11:35:00;;;;;;;2.42;0.40;;;;;;;;;;4989046;28;20058;-63
2023/09/22 11:37:55;;;;;;;2.35;0.60;;;;;;;;;;4988700;28;20058;-62
2023/09/22 11:40:41;;;;;;;3.80;0.70;;;;;;;;;;4989781;28;20069;-63
2023/09/22 11:43:41;;;;;;;2.72;0.68;;;;;;;;;;4988878;28;20053;-58
2023/09/22 11:46:36;;;;;;;1.60;0.57;;;;;;;;;;4987287;28;20062;-59
2023/09/22 11:49:36;;;;;;;0.60;0.60;;;;;;;;;;4987106;28;20058;-63
2023/09/22 11:52:31;;;;;;;2.45;0.70;;;;;;;;;;4984983;28;20511;-64
2023/09/22 11:55:25;;;;;;;6.35;0.63;;;;;;;;;;4989517;28;20047;-63
2023/09/22 11:58:12;;;;;;;1.13;0.70;;;;;;;;;;4991013;28;20058;-63
2023/09/22 12:01:06;;;;;;;1.60;0.60;;;;;;;;;;4988403;28;20510;-64
2023/09/22 12:03:53;;;;;;;0.55;0.55;;;;;;;;;;4988642;28;20050;-59
2023/09/22 12:06:48;;;;;;;5.60;0.80;;;;;;;;;;4991723;28;20572;-59
2023/09/22 12:09:34;;;;;;;0.60;0.60;;;;;;;;;;4990854;28;20206;-58
2023/09/22 12:12:28;;;;;;;1.30;0.82;;;;;;;;;;4985660;28;20106;-59
2023/09/22 12:15:15;;;;;;;1.50;0.60;;;;;;;;;;4989247;28;20058;-62
2023/09/22 12:18:15;;;;;;;1.48;0.70;;;;;;;;;;4991064;28;20506;-59
2023/09/22 12:21:17;;;;;;;1.25;0.55;;;;;;;;;;4990159;28;20141;-59
2023/09/22 12:24:18;;;;;;;0.73;0.40;;;;;;;;;;4992582;28;20058;-59
2023/09/22 12:27:05;;;;;;;1.08;0.60;;;;;;;;;;4987272;28;20051;-59
2023/09/22 12:30:00;;;;;;;0.77;0.50;;;;;;;;;;4991007;28;20046;-59
2023/09/22 12:32:50;;;;;;;3.97;0.93;;;;;;;;;;4989851;28;20106;-48
2023/09/22 12:35:44;;;;;;;2.20;0.60;;;;;;;;;;4985941;28;20430;-50
2023/09/22 12:38:31;;;;;;;1.45;0.63;;;;;;;;;;4984574;28;21420;-50
2023/09/22 12:41:25;;;;;;;4.93;0.90;;;;;;;;;;4987077;28;20106;-64
2023/09/22 12:44:12;;;;;;;1.08;0.63;;;;;;;;;;4988359;28;20054;-58
2023/09/22 12:47:08;;;;;;;0.55;0.50;;;;;;;;;;4986732;28;20069;-58
2023/09/22 12:49:54;;;;;;;3.45;0.77;;;;;;;;;;4988660;28;20627;-58
2023/09/22 12:52:48;;;;;;;4.43;0.90;;;;;;;;;;4989673;28;20050;-58
2023/09/22 12:55:42;;;;;;;4.18;1.13;;;;;;;;;;4978611;28;20423;-58
2023/09/22 12:58:36;;;;;;;2.78;0.88;;;;;;;;;;4986612;28;20073;-58
2023/09/22 13:01:24;;;;;;;1.77;0.85;;;;;;;;;;4990321;28;20043;-48
2023/09/22 13:04:18;;;;;;;4.55;1.13;;;;;;;;;;4972798;28;20538;-48
2023/09/22 13:07:05;;;;;;;2.92;0.93;;;;;;;;;;4994966;28;20046;-52
2023/09/22 13:09:59;;;;;;;1.55;1.10;;;;;;;;;;4985725;28;20046;-61
2023/09/22 13:12:46;;;;;;;3.75;0.80;;;;;;;;;;4990410;28;20060;-59
2023/09/22 13:15:44;;;;;;;2.85;1.27;;;;;;;;;;4988274;28;20054;-59
2023/09/22 13:18:37;;;;;;;3.60;1.23;;;;;;;;;;4989264;28;20158;-59
2023/09/22 13:21:31;;;;;;;2.55;1.02;;;;;;;;;;4989510;28;20050;-60
2023/09/22 13:24:19;;;;;;;3.10;1.05;;;;;;;;;;4992687;28;20078;-59
2023/09/22 13:27:13;;;;;;;3.90;1.20;;;;;;;;;;4986368;28;20411;-60
2023/09/22 13:30:00;;;;;;;2.13;1.20;;;;;;;;;;4987535;28;20050;-60
2023/09/22 13:32:53;;;;;;;5.95;1.33;;;;;;;;;;4990331;28;20053;-60
2023/09/22 13:35:41;;;;;;;4.00;1.45;;;;;;;;;;4987891;28;20060;-60
2023/09/22 13:38:35;;;;;;;2.08;1.20;;;;;;;;;;4988834;28;20058;-60
2023/09/22 13:41:22;;;;;;;4.93;1.30;;;;;;;;;;4987815;28;20109;-65
2023/09/22 13:44:16;;;;;;;5.45;1.48;;;;;;;;;;4983291;28;20102;-63
2023/09/22 13:47:03;;;;;;;5.82;1.30;;;;;;;;;;4986653;28;20081;-64
2023/09/22 13:49:57;;;;;;;5.28;1.40;;;;;;;;;;4988524;28;20161;-64
2023/09/22 13:52:51;;;;;;;9.95;1.40;;;;;;;;;;4983034;28;20058;-64
2023/09/22 13:55:38;;;;;;;5.60;1.30;;;;;;;;;;4989171;28;20504;-65
2023/09/22 13:58:32;;;;;;;8.77;1.33;;;;;;;;;;4990983;28;20145;-60
2023/09/22 14:01:22;;;;;;;4.13;1.27;;;;;;;;;;4987787;28;20061;-60
2023/09/22 14:04:16;;;;;;;3.63;1.33;;;;;;;;;;4990252;28;20049;-60
2023/09/22 14:07:09;;;;;;;5.55;1.17;;;;;;;;;;4985076;28;20061;-52
2023/09/22 14:10:05;;;;;;;5.85;1.45;;;;;;;;;;4983828;28;20046;-60
2023/09/22 14:12:58;;;;;;;4.97;1.10;;;;;;;;;;4983614;28;20133;-60
2023/09/22 14:15:46;;;;;;;3.67;1.30;;;;;;;;;;4984230;28;20049;-61
2023/09/22 14:18:47;;;;;;;7.60;1.67;;;;;;;;;;4986038;28;20803;-61
2023/09/22 14:21:46;;;;;;;7.53;1.65;;;;;;;;;;4984219;28;20585;-61
2023/09/22 14:24:41;;;;;;;4.00;1.65;;;;;;;;;;4988195;28;20121;-58
2023/09/22 14:27:28;;;;;;;5.68;1.33;;;;;;;;;;4985748;28;20054;-61
2023/09/22 14:30:22;;;;;;;4.47;1.60;;;;;;;;;;4985020;28;20069;-63
2023/09/22 14:33:09;;;;;;;3.72;1.60;;;;;;;;;;4962303;28;20149;-63
2023/09/22 14:36:05;;;;;;;6.90;2.08;;;;;;;;;;4987189;28;20113;-63
2023/09/22 14:38:51;;;;;;;5.85;1.52;;;;;;;;;;4985734;28;20132;-63
2023/09/22 14:41:44;;;;;;;3.30;1.75;;;;;;;;;;4988842;28;20061;-63
2023/09/22 14:44:32;;;;;;;3.63;1.70;;;;;;;;;;4975139;28;20424;-47
2023/09/22 14:47:26;;;;;;;4.78;1.88;;;;;;;;;;4980709;28;20122;-62
2023/09/22 14:50:18;;;;;;;5.05;1.95;;;;;;;;;;4985394;28;20078;-61
2023/09/22 14:53:10;;;;;;;5.75;1.70;;;;;;;;;;4988857;28;20503;-62
2023/09/22 14:56:00;;;;;;;8.68;1.60;;;;;;;;;;4984596;28;20051;-62
2023/09/22 14:58:54;;;;;;;8.32;1.60;;;;;;;;;;4987651;28;20054;-61
2023/09/22 15:01:42;;;;;;;6.18;1.80;;;;;;;;;;4979474;28;20103;-60
2023/09/22 15:04:36;;;;;;;7.10;1.90;;;;;;;;;;4990224;28;20050;-57
2023/09/22 15:07:23;;;;;;;6.35;2.10;;;;;;;;;;4980566;28;20113;-57
2023/09/22 15:10:17;;;;;;;7.45;2.10;;;;;;;;;;4985602;28;20105;-58
2023/09/22 15:13:15;;;;;;;2.88;1.80;;;;;;;;;;4985424;28;20602;-58
2023/09/22 15:16:08;;;;;;;4.85;1.58;;;;;;;;;;4984901;28;20060;-58
2023/09/22 15:19:01;;;;;;;4.97;1.65;;;;;;;;;;4983434;28;20062;-57
2023/09/22 15:21:55;;;;;;;;;;;;;;;;;;4984053;28;20050;-59
2023/09/22 15:24:42;;;;;;;5.85;1.50;;;;;;;;;;4983257;28;20354;-59
2023/09/22 15:27:36;;;;;;;5.75;1.83;;;;;;;;;;4979067;28;20089;-59
2023/09/22 15:30:30;;;;;;;4.22;1.77;;;;;;;;;;4980654;28;20050;-62
2023/09/22 15:33:24;;;;;;;4.57;1.42;;;;;;;;;;4989632;28;20054;-58
2023/09/22 15:36:11;;;;;;;4.47;1.63;;;;;;;;;;4980680;28;20071;-59
2023/09/22 15:39:05;;;;;;;6.00;1.45;;;;;;;;;;4985652;28;20113;-58
2023/09/22 15:41:52;;;;;;;4.95;2.10;;;;;;;;;;4988657;28;20552;-59
2023/09/22 15:44:46;;;;;;;7.30;2.00;;;;;;;;;;4978200;28;20059;-58
2023/09/22 15:47:33;;;;;;;6.25;1.60;;;;;;;;;;4977270;28;20058;-59
2023/09/22 15:50:27;;;;;;;6.10;1.50;;;;;;;;;;4976937;28;20063;-62
2023/09/22 15:53:16;;;;;;;6.80;2.05;;;;;;;;;;4979752;28;20066;-61
2023/09/22 15:56:09;;;;;;;3.92;1.60;;;;;;;;;;4979234;28;20061;-62
2023/09/22 15:58:57;;;;;;;5.72;2.13;;;;;;;;;;4967442;28;20094;-61
2023/09/22 16:01:51;;;;;;;2.88;1.63;;;;;;;;;;4974349;28;20082;-61
2023/09/22 16:04:38;;;;;;;5.70;1.73;;;;;;;;;;4978206;28;20637;-61
2023/09/22 16:07:32;;;;;;;4.80;1.60;;;;;;;;;;4975022;28;20058;-58
2023/09/22 16:10:20;;;;;;;7.63;1.90;;;;;;;;;;4979095;28;20149;-58
2023/09/22 16:13:13;;;;;;;4.45;1.60;;;;;;;;;;4978277;28;20054;-58
2023/09/22 16:16:04;;;;;;;5.28;1.60;;;;;;;;;;4973198;28;20049;-59
2023/09/22 16:18:45;;;;;;;5.43;1.67;;;;;;;;;;4963759;28;20742;-58
2023/09/22 16:21:39;;;;;;;3.65;1.75;;;;;;;;;;4962832;28;20152;-59
2023/09/22 16:24:33;;;;;;;4.38;1.90;;;;;;;;;;4966588;28;20106;-59
2023/09/22 16:27:00;;;;;;;5.10;1.70;;;;;;;;;;4960914;28;20065;-59
2023/09/22 16:29:27;;;;;;;;;;;;;;;;;;4963672;28;20110;-46
2023/09/22 16:32:22;;;;;;;4.68;1.70;;;;;;;;;;4960508;28;19929;-47
2023/09/22 16:35:09;;;;;;;5.75;1.40;;;;;;;;;;4951703;28;20141;-47
2023/09/22 16:38:03;;;;;;;7.38;1.73;;;;;;;;;;4953295;28;20479;-49
2023/09/22 16:40:50;;;;;;;12.07;2.10;;;;;;;;;;4961049;28;20126;-49
2023/09/22 16:43:44;;;;;;;4.82;1.90;;;;;;;;;;4956474;28;20055;-58
2023/09/22 16:46:32;;;;;;;5.95;1.77;;;;;;;;;;4948959;28;20066;-62
2023/09/22 16:49:26;;;;;;;4.43;1.65;;;;;;;;;;4952078;28;20058;-62
2023/09/22 16:52:15;;;;;;;4.65;1.90;;;;;;;;;;4955367;28;20055;-62
2023/09/22 16:55:10;;;;;;;9.02;2.10;;;;;;;;;;4966584;28;20487;-62
2023/09/22 16:57:56;;;;;;;5.95;1.90;;;;;;;;;;4964345;28;20154;-62
2023/09/22 17:00:51;;;;;;;4.93;1.98;;;;;;;;;;4964212;28;20068;-63
2023/09/22 17:03:37;;;;;;;5.05;2.05;;;;;;;;;;4968432;28;20101;-59
2023/09/22 17:06:31;;;;;;;5.15;2.00;;;;;;;;;;4968016;28;20490;-48